createdAt,value
2023-04-25T00:00:03.728Z,87.98
2023-04-25T00:02:04.984Z,87.9
2023-04-25T00:06:08.290Z,88.05
2023-04-25T00:10:10.777Z,87.84
2023-04-25T00:12:11.851Z,88.25
2023-04-25T00:16:15.099Z,88.37
2023-04-25T00:20:18.403Z,88.51
2023-04-25T00:22:19.249Z,88.76
2023-04-25T00:26:22.918Z,88.97
2023-04-25T00:28:24.176Z,89.17
2023-04-25T00:32:26.237Z,88.63
2023-04-25T00:36:29.338Z,88.91
2023-04-25T00:38:31.192Z,88.98
2023-04-25T00:42:42.749Z,89.21
2023-04-25T00:44:35.340Z,89.43
2023-04-25T00:48:38.468Z,89.91
2023-04-25T00:52:41.732Z,90.28
2023-04-25T00:54:43.172Z,90.26
2023-04-25T00:58:45.828Z,90.69
2023-04-25T01:02:48.421Z,90.89
2023-04-25T01:04:49.959Z,91.17
2023-04-25T01:08:52.887Z,91.38
2023-04-25T01:10:54.777Z,91.45
2023-04-25T01:14:57.090Z,91.61
2023-04-25T01:18:59.572Z,91.56
2023-04-25T01:21:00.895Z,91.53
2023-04-25T01:25:03.972Z,91.23
2023-04-25T01:27:05.282Z,91.3
2023-04-25T01:31:08.574Z,91.35
2023-04-25T01:35:11.667Z,90.98
2023-04-25T01:37:12.752Z,90.96
2023-04-25T01:41:15.541Z,90.96
2023-04-25T01:45:18.177Z,90.68
2023-04-25T01:47:19.840Z,90.78
2023-04-25T01:51:22.740Z,90.28
2023-04-25T01:53:23.826Z,90.4
2023-04-25T01:55:25.224Z,90.51
2023-04-25T01:57:26.851Z,90.44
2023-04-25T02:01:29.311Z,90.09
2023-04-25T02:03:31.311Z,90.22
2023-04-25T02:05:32.726Z,90.14
2023-04-25T02:07:34.122Z,90.11
2023-04-25T02:09:35.870Z,90.11
2023-04-25T02:13:38.737Z,90.62
2023-04-25T02:15:40.534Z,90.61
2023-04-25T02:17:41.727Z,90.71
2023-04-25T02:19:43.394Z,90.82
2023-04-25T02:23:46.235Z,90.78
2023-04-25T02:25:47.435Z,90.89
2023-04-25T02:29:50.336Z,90.74
2023-04-25T02:33:52.995Z,91.07
2023-04-25T02:35:54.421Z,91.05
2023-04-25T02:39:57.946Z,91.11
2023-04-25T02:44:00.201Z,91.27
2023-04-25T02:46:01.221Z,91.24
2023-04-25T02:50:03.817Z,91.35
2023-04-25T02:52:05.552Z,91.39
2023-04-25T02:56:08.253Z,91.65
2023-04-25T03:00:10.735Z,91.8
2023-04-25T03:02:12.542Z,91.94
2023-04-25T03:06:15.101Z,92.01
2023-04-25T03:08:16.943Z,92.04
2023-04-25T03:12:19.935Z,91.93
2023-04-25T03:16:23.479Z,91.88
2023-04-25T03:18:24.962Z,91.8
2023-04-25T03:22:27.897Z,91.64
2023-04-25T03:26:30.047Z,91.53
2023-04-25T03:28:31.895Z,91.4
2023-04-25T03:32:35.223Z,91.42
2023-04-25T03:34:36.550Z,91.48
2023-04-25T03:38:39.700Z,91.43
2023-04-25T03:42:44.492Z,91.33
2023-04-25T03:44:44.953Z,91.12
2023-04-25T03:48:47.690Z,91
2023-04-25T03:50:49.498Z,90.93
2023-04-25T03:54:52.177Z,90.87
2023-04-25T03:58:54.919Z,90.7
2023-04-25T04:00:55.992Z,90.65
2023-04-25T04:04:58.817Z,90.96
2023-04-25T04:09:01.486Z,91.03
2023-04-25T04:11:02.590Z,91.1
2023-04-25T04:15:05.627Z,91.44
2023-04-25T04:17:07.059Z,91.52
2023-04-25T04:21:09.773Z,92
2023-04-25T04:25:11.958Z,92.44
2023-04-25T04:27:13.001Z,92.79
2023-04-25T04:29:14.159Z,93.17
2023-04-25T04:31:15.268Z,93.18
2023-04-25T04:33:16.617Z,93.35
2023-04-25T04:37:20.358Z,93.29
2023-04-25T04:39:21.355Z,93.5
2023-04-25T04:41:22.882Z,93.4
2023-04-25T04:43:23.886Z,93.36
2023-04-25T04:47:27.593Z,93.75
2023-04-25T04:49:28.789Z,93.65
2023-04-25T04:53:32.446Z,93.73
2023-04-25T04:57:35.747Z,94.06
2023-04-25T04:59:37.287Z,94.24
2023-04-25T05:02:22.580Z,94.41
2023-04-25T05:04:24.436Z,94.57
2023-04-25T05:08:27.540Z,94.81
2023-04-25T05:10:29.236Z,94.87
2023-04-25T05:14:32.148Z,94.93
2023-04-25T05:18:34.818Z,95.01
2023-04-25T05:20:35.957Z,94.78
2023-04-25T05:24:39.165Z,94.81
2023-04-25T05:26:40.965Z,94.88
2023-04-25T05:30:43.926Z,94.99
2023-04-25T05:34:46.792Z,95.15
2023-04-25T05:36:48.144Z,95.27
2023-04-25T05:40:50.938Z,95.43
2023-04-25T05:44:53.816Z,95.44
2023-04-25T05:46:55.024Z,95.36
2023-04-25T05:50:58.386Z,95.51
2023-04-25T05:53:00.160Z,95.48
2023-04-25T05:57:02.388Z,95.09
2023-04-25T06:01:05.074Z,95.32
2023-04-25T06:03:06.849Z,95.19
2023-04-25T06:07:10.004Z,94.94
2023-04-25T06:09:13.354Z,94.93
2023-04-25T06:13:14.465Z,94.88
2023-04-25T06:17:17.521Z,95.01
2023-04-25T06:19:19.260Z,94.93
2023-04-25T06:23:22.375Z,94.9
2023-04-25T06:27:24.942Z,94.48
2023-04-25T06:29:26.676Z,94.45
2023-04-25T06:33:29.136Z,93.89
2023-04-25T06:35:30.449Z,93.3
2023-04-25T06:39:33.487Z,92.4
2023-04-25T06:43:37.186Z,92.53
2023-04-25T06:45:38.550Z,92.43
2023-04-25T06:49:41.966Z,92.34
2023-04-25T06:51:42.984Z,91.96
2023-04-25T06:55:45.669Z,91.99
2023-04-25T06:59:48.525Z,91.56
2023-04-25T07:01:49.971Z,91.01
2023-04-25T07:05:52.809Z,90.87
2023-04-25T07:09:54.951Z,90.63
2023-04-25T07:11:56.684Z,90.83
2023-04-25T07:15:59.573Z,90.23
2023-04-25T07:18:00.667Z,90.02
2023-04-25T07:20:01.675Z,89.98
2023-04-25T07:22:02.678Z,89.69
2023-04-25T07:26:04.758Z,89.52
2023-04-25T07:28:06.459Z,88.46
2023-04-25T07:30:08.070Z,89.4
2023-04-25T07:32:09.075Z,88.87
2023-04-25T07:34:10.004Z,88.7
2023-04-25T07:38:12.858Z,88.91
2023-04-25T07:42:15.967Z,87.58
2023-04-25T07:44:17.145Z,88.38
2023-04-25T07:48:19.678Z,86.33
2023-04-25T07:50:20.723Z,86.59
2023-04-25T07:54:24.258Z,86.33
2023-04-25T07:58:26.884Z,86.41
2023-04-25T08:00:28.109Z,86.41
2023-04-25T08:04:30.831Z,86.47
2023-04-25T08:08:33.453Z,86.6
2023-04-25T08:10:34.817Z,85.68
2023-04-25T08:14:38.095Z,85.44
2023-04-25T08:16:38.976Z,82.31
2023-04-25T08:20:42.196Z,82.11
2023-04-25T08:26:46.395Z,80.46
2023-04-25T08:30:49.193Z,78.87
2023-04-25T08:32:51.013Z,78.4
2023-04-25T08:36:54.026Z,75.32
2023-04-25T08:40:56.536Z,74.16
2023-04-25T08:42:57.953Z,72.04
2023-04-25T08:47:00.461Z,72.33
2023-04-25T08:49:01.500Z,69.24
2023-04-25T08:53:03.947Z,68.12
2023-04-25T08:57:07.012Z,66.16
2023-04-25T08:59:08.386Z,65.55
2023-04-25T09:03:12.720Z,69.82
2023-04-25T09:05:13.481Z,68.17
2023-04-25T09:09:16.044Z,66.51
2023-04-25T09:13:19.231Z,67.51
2023-04-25T09:15:21.517Z,66.77
2023-04-25T09:19:25.295Z,67.23
2023-04-25T09:23:27.020Z,62.69
2023-04-25T09:25:28.720Z,62.89
2023-04-25T09:29:32.692Z,65.85
2023-04-25T09:31:33.894Z,60.73
2023-04-25T09:35:35.986Z,57.19
2023-04-25T09:39:38.851Z,57.48
2023-04-25T09:41:40.592Z,61.96
2023-04-25T09:45:43.686Z,59.59
2023-04-25T09:47:45.161Z,61.26
2023-04-25T09:51:47.242Z,62.07
2023-04-25T09:55:49.881Z,60.18
2023-04-25T09:57:51.503Z,60.97
2023-04-25T10:01:54.029Z,60.59
2023-04-25T10:05:55.977Z,58.21
2023-04-25T10:07:57.082Z,56.62
2023-04-25T10:11:59.461Z,58.47
2023-04-25T10:14:00.836Z,60.16
2023-04-25T10:18:04.280Z,58.38
2023-04-25T10:22:06.572Z,58.47
2023-04-25T10:24:07.926Z,57.55
2023-04-25T10:28:10.487Z,59.66
2023-04-25T10:30:11.787Z,57.75
2023-04-25T10:34:13.873Z,59.62
2023-04-25T10:38:16.695Z,60.04
2023-04-25T10:40:17.770Z,62.11
2023-04-25T10:44:20.647Z,59.64
2023-04-25T10:46:21.897Z,62.27
2023-04-25T10:50:24.467Z,60.18
2023-04-25T10:54:26.710Z,59.56
2023-04-25T10:56:27.743Z,58.21
2023-04-25T11:00:38.449Z,58.48
2023-04-25T11:04:34.655Z,57.6
2023-04-25T11:06:35.900Z,57.55
2023-04-25T11:10:38.890Z,60.52
2023-04-25T11:12:40.300Z,58.66
2023-04-25T11:16:43.643Z,58.03
2023-04-25T11:20:46.366Z,58.8
2023-04-25T11:22:47.235Z,59.24
2023-04-25T11:26:49.834Z,59.75
2023-04-25T11:28:51.198Z,58.4
2023-04-25T11:32:54.278Z,57.11
2023-04-25T11:36:57.463Z,58.87
2023-04-25T11:38:59.226Z,58.73
2023-04-25T11:43:02.223Z,59.16
2023-04-25T11:47:48.710Z,57.91
2023-04-25T11:49:50.120Z,59.75
2023-04-25T11:53:53.244Z,58.34
2023-04-25T11:57:55.847Z,60.18
2023-04-25T11:59:57.636Z,60.57
2023-04-25T12:04:01.130Z,60.74
2023-04-25T12:06:03.793Z,61.2
2023-04-25T12:10:05.839Z,60.31
2023-04-25T12:14:08.007Z,59.56
2023-04-25T12:16:09.248Z,60.24
2023-04-25T12:20:11.736Z,61.16
2023-04-25T12:24:15.356Z,60.58
2023-04-25T12:26:16.274Z,59.85
2023-04-25T12:30:18.816Z,59.93
2023-04-25T12:32:20.677Z,59.56
2023-04-25T12:36:23.226Z,60.36
2023-04-25T12:40:26.829Z,61.18
2023-04-25T12:42:28.636Z,61.64
2023-04-25T12:46:31.309Z,59.16
2023-04-25T12:48:32.302Z,59.38
2023-04-25T12:52:34.861Z,58.48
2023-04-25T12:56:37.558Z,59.83
2023-04-25T12:58:39.083Z,57.96
2023-04-25T13:02:41.604Z,59.46
2023-04-25T13:06:43.401Z,58.85
2023-04-25T13:08:44.504Z,59.67
2023-04-25T13:12:46.343Z,58.37
2023-04-25T13:14:47.759Z,58.56
2023-04-25T13:16:49.464Z,59.9
2023-04-25T13:18:50.952Z,60.59
2023-04-25T13:22:54.055Z,61.43
2023-04-25T13:24:55.639Z,61.14
2023-04-25T13:26:57.439Z,61.74
2023-04-25T13:28:58.579Z,62.17
2023-04-25T13:30:59.917Z,61.52
2023-04-25T13:35:06.115Z,61.13
2023-04-25T13:37:04.342Z,62.11
2023-04-25T13:39:05.461Z,61.63
2023-04-25T13:41:07.031Z,58.36
2023-04-25T13:45:09.596Z,56.67
2023-04-25T13:47:10.641Z,55.29
2023-04-25T13:51:13.349Z,56.34
2023-04-25T13:55:17.461Z,54
2023-04-25T13:57:18.529Z,54.23
2023-04-25T14:01:21.701Z,55.51
2023-04-25T14:05:24.019Z,58.9
2023-04-25T14:07:25.376Z,54.28
2023-04-25T14:11:28.028Z,53.84
2023-04-25T14:13:28.854Z,56.18
2023-04-25T14:17:31.038Z,55.88
2023-04-25T14:21:32.874Z,57.68
2023-04-25T14:23:34.184Z,59.18
2023-04-25T14:27:37.599Z,61.96
2023-04-25T14:29:38.490Z,61.61
2023-04-25T14:33:41.349Z,61.98
2023-04-25T14:37:43.524Z,60.67
2023-04-25T14:39:46.401Z,59.82
2023-04-25T14:43:47.120Z,59.03
2023-04-25T14:47:50.070Z,62.42
2023-04-25T14:49:51.258Z,57.45
2023-04-25T14:53:54.415Z,58.28
2023-04-25T14:55:55.955Z,57.77
2023-04-25T14:57:57.731Z,57.55
2023-04-25T14:59:58.229Z,54.1
2023-04-25T15:04:00.984Z,54.22
2023-04-25T15:06:01.993Z,55.33
2023-04-25T15:08:03.618Z,55.33
2023-04-25T15:10:05.298Z,56.08
2023-04-25T15:12:06.734Z,56.58
2023-04-25T15:16:10.461Z,58.52
2023-04-25T15:20:13.105Z,56.77
2023-04-25T15:22:13.976Z,57.75
2023-04-25T15:26:16.674Z,58.31
2023-04-25T15:32:20.825Z,58.68
2023-04-25T15:36:23.814Z,59.45
2023-04-25T15:38:24.797Z,59.05
2023-04-25T15:42:27.719Z,59.74
2023-04-25T15:46:29.807Z,60.36
2023-04-25T15:48:31.514Z,58.99
2023-04-25T15:52:34.663Z,61.45
2023-04-25T15:54:35.837Z,60.44
2023-04-25T15:58:38.632Z,60.01
2023-04-25T16:02:40.909Z,60.51
2023-04-25T16:04:42.123Z,61.12
2023-04-25T16:08:45.787Z,61.95
2023-04-25T16:10:46.750Z,59.41
2023-04-25T16:14:49.060Z,60.82
2023-04-25T16:18:51.097Z,60.63
2023-04-25T16:20:52.203Z,60.62
2023-04-25T16:24:54.894Z,61.03
2023-04-25T16:28:58.066Z,62.08
2023-04-25T16:30:59.323Z,60.7
2023-04-25T16:35:02.410Z,61.54
2023-04-25T16:37:03.628Z,61.02
2023-04-25T16:41:06.705Z,60.97
2023-04-25T16:45:09.740Z,60.87
2023-04-25T16:47:12.203Z,60.75
2023-04-25T16:51:13.956Z,60.91
2023-04-25T16:53:15.669Z,60.62
2023-04-25T16:57:18.367Z,61.4
2023-04-25T17:01:20.642Z,61.34
2023-04-25T17:03:22.095Z,61.24
2023-04-25T17:07:24.648Z,60.51
2023-04-25T17:11:27.838Z,59.29
2023-04-25T17:13:30.487Z,60.39
2023-04-25T17:17:32.195Z,60.1
2023-04-25T17:19:33.485Z,60.18
2023-04-25T17:23:35.937Z,61.19
2023-04-25T17:27:38.345Z,60.99
2023-04-25T17:29:39.964Z,60.84
2023-04-25T17:33:42.861Z,60.51
2023-04-25T17:35:43.887Z,61.62
2023-04-25T17:39:46.533Z,61.25
2023-04-25T17:43:50.353Z,62.81
2023-04-25T17:45:51.447Z,61.54
2023-04-25T17:49:53.808Z,61.63
2023-04-25T17:53:57.478Z,61.09
2023-04-25T17:55:59.273Z,61.96
2023-04-25T18:00:03.916Z,62.78
2023-04-25T18:02:04.105Z,62.25
2023-04-25T18:04:05.011Z,62.97
2023-04-25T18:06:06.407Z,63.55
2023-04-25T18:10:08.746Z,64.17
2023-04-25T18:12:10.560Z,63.36
2023-04-25T18:14:12.416Z,62.57
2023-04-25T18:16:14.244Z,63.05
2023-04-25T18:18:15.991Z,62.38
2023-04-25T18:22:19.088Z,63.89
2023-04-25T18:26:21.402Z,62.15
2023-04-25T18:28:23.190Z,62.13
2023-04-25T18:33:10.576Z,61.96
2023-04-25T18:37:13.513Z,62.59
2023-04-25T18:39:21.807Z,62.18
2023-04-25T18:43:17.798Z,61.71
2023-04-25T18:47:20.866Z,62.39
2023-04-25T18:49:22.181Z,63.16
2023-04-25T18:53:24.602Z,63.12
2023-04-25T18:55:26.278Z,63.08
2023-04-25T18:59:29.148Z,63.49
2023-04-25T19:03:31.853Z,64.99
2023-04-25T19:05:33.160Z,64.45
2023-04-25T19:09:36.021Z,65.2
2023-04-25T19:11:37.246Z,65.19
2023-04-25T19:15:39.841Z,65.39
2023-04-25T19:19:42.071Z,66.94
2023-04-25T19:21:43.996Z,67.6
2023-04-25T19:25:46.528Z,68.74
2023-04-25T19:29:48.808Z,69.16
2023-04-25T19:31:50.545Z,68.57
2023-04-25T19:35:53.933Z,69.07
2023-04-25T19:37:55.253Z,69.41
2023-04-25T19:41:58.685Z,70.65
2023-04-25T19:46:01.628Z,72.1
2023-04-25T19:48:03.381Z,71.49
2023-04-25T19:52:06.459Z,72.3
2023-04-25T19:54:07.475Z,72.51
2023-04-25T19:58:11.024Z,72.46
2023-04-25T20:02:13.394Z,73.64
2023-04-25T20:04:15.387Z,72.79
2023-04-25T20:08:19.143Z,72.35
2023-04-25T20:12:22.193Z,72.73
2023-04-25T20:14:23.859Z,72.7
2023-04-25T20:18:27.228Z,73.06
2023-04-25T20:20:28.439Z,73.38
2023-04-25T20:24:31.161Z,73.83
2023-04-25T20:28:34.215Z,75.33
2023-04-25T20:30:35.415Z,75.02
2023-04-25T20:34:38.436Z,76.16
2023-04-25T20:36:40.308Z,76.13
2023-04-25T20:40:43.923Z,75.83
2023-04-25T20:44:47.443Z,76.33
2023-04-25T20:46:49.243Z,76.79
2023-04-25T20:50:52.446Z,76.43
2023-04-25T20:54:55.467Z,77.68
2023-04-25T20:56:56.526Z,77.9
2023-04-25T21:00:59.686Z,78.13
2023-04-25T21:03:00.944Z,78.81
2023-04-25T21:05:02.288Z,78.7
2023-04-25T21:07:03.818Z,78.91
2023-04-25T21:11:06.734Z,78.01
2023-04-25T21:13:08.115Z,77.92
2023-04-25T21:17:11.210Z,78.6
2023-04-25T21:19:13.083Z,78.75
2023-04-25T21:23:15.697Z,78.45
2023-04-25T21:27:18.760Z,79.56
2023-04-25T21:29:19.893Z,78.99
2023-04-25T21:33:22.802Z,80.44
2023-04-25T21:37:26.144Z,81.49
2023-04-25T21:39:27.202Z,81.56
2023-04-25T21:43:30.467Z,81.18
2023-04-25T21:45:31.820Z,80.57
2023-04-25T21:47:33.165Z,80.04
2023-04-25T21:49:34.963Z,80.25
2023-04-25T21:53:37.861Z,81.65
2023-04-25T21:55:39.037Z,80.95
2023-04-25T21:57:40.833Z,81.44
2023-04-25T21:59:42.290Z,81.56
2023-04-25T22:01:43.457Z,81.55
2023-04-25T22:05:46.858Z,82.43
2023-04-25T22:07:48.381Z,82.34
2023-04-25T22:09:54.748Z,82.77
2023-04-25T22:11:51.683Z,83.25
2023-04-25T22:15:54.476Z,84.75
2023-04-25T22:21:59.722Z,84.94
2023-04-25T22:26:02.932Z,85.4
2023-04-25T22:28:04.472Z,85.14
2023-04-25T22:30:05.955Z,85.3
2023-04-25T22:32:07.373Z,85.56
2023-04-25T22:36:10.594Z,85.66
2023-04-25T22:38:12.264Z,85.95
2023-04-25T22:40:14.247Z,85.95
2023-04-25T22:42:15.672Z,86.5
2023-04-25T22:44:17.583Z,87.08
2023-04-25T22:48:20.935Z,86.44
2023-04-25T22:52:23.543Z,87.02
2023-04-25T22:54:25.531Z,87.28
2023-04-25T22:58:28.873Z,88.31
2023-04-25T23:04:32.533Z,89.11
2023-04-25T23:08:35.954Z,89.82
2023-04-25T23:10:37.566Z,90.3
2023-04-25T23:12:38.870Z,90.95
2023-04-25T23:14:40.424Z,91.25
2023-04-25T23:18:43.551Z,91.13
2023-04-25T23:20:45.277Z,91.09
2023-04-25T23:22:46.365Z,91.5
2023-04-25T23:24:47.979Z,91.48
2023-04-25T23:26:49.558Z,91.15
2023-04-25T23:30:52.113Z,90.89
2023-04-25T23:34:55.110Z,91.13
2023-04-25T23:36:56.333Z,91.26
2023-04-25T23:40:58.969Z,91.39
2023-04-25T23:43:00.891Z,91.71
2023-04-25T23:47:04.189Z,92.03
2023-04-25T23:51:07.314Z,91.74
2023-04-25T23:53:08.614Z,91.67
2023-04-25T23:57:11.517Z,91.79
